createdAt,value
2022-12-31T00:02:16.667Z,98217.75
2022-12-31T00:05:02.112Z,98214.97
2022-12-31T00:07:47.655Z,98234.88
2022-12-31T00:10:39.835Z,98242.44
2022-12-31T00:13:25.349Z,98242.88
2022-12-31T00:16:14.262Z,98254.94
2022-12-31T00:19:01.101Z,98247.34
2022-12-31T00:21:46.346Z,98251.69
2022-12-31T00:24:31.693Z,98248.56
2022-12-31T00:27:16.905Z,98240.22
2022-12-31T00:30:04.849Z,98258.59
2022-12-31T00:32:50.909Z,98260.59
2022-12-31T00:35:36.429Z,98266.16
2022-12-31T00:38:21.991Z,98255.03
2022-12-31T00:41:07.916Z,98270.97
2022-12-31T00:43:53.783Z,98282.09
2022-12-31T00:49:23.541Z,98284.09
2022-12-31T00:52:08.916Z,98291.63
2022-12-31T00:54:54.114Z,98287.66
2022-12-31T00:57:39.323Z,98292.44
2022-12-31T01:00:24.587Z,98298.00
2022-12-31T01:03:10.072Z,98290.09
2022-12-31T01:05:59.609Z,98294.88
2022-12-31T01:08:48.735Z,98283.78
2022-12-31T01:11:34.386Z,98306.00
2022-12-31T01:14:20.630Z,98305.22
2022-12-31T01:17:06.170Z,98310.00
2022-12-31T01:19:51.483Z,98316.81
2022-12-31T01:22:36.756Z,98311.25
2022-12-31T01:25:22.090Z,98308.47
2022-12-31T01:28:08.085Z,98319.59
2022-12-31T01:30:53.859Z,98322.38
2022-12-31T01:33:39.029Z,98319.59
2022-12-31T01:36:27.604Z,98334.69
2022-12-31T01:39:13.175Z,98344.59
2022-12-31T01:44:39.101Z,98345.03
2022-12-31T01:47:41.388Z,98352.63
2022-12-31T01:50:33.370Z,98358.19
2022-12-31T01:53:18.228Z,98358.19
2022-12-31T01:56:03.036Z,98353.84
2022-12-31T01:58:50.994Z,98364.94
2022-12-31T02:01:37.561Z,98372.53
2022-12-31T02:09:38.696Z,98363.41
2022-12-31T02:12:23.353Z,98373.75
2022-12-31T02:15:08.852Z,98374.53
2022-12-31T02:18:32.159Z,98378.53
2022-12-31T02:21:33.778Z,98378.53
2022-12-31T02:24:32.290Z,98388.88
2022-12-31T02:27:45.112Z,98388.88
2022-12-31T02:30:33.291Z,98381.78
2022-12-31T02:33:27.670Z,98387.34
2022-12-31T02:36:20.547Z,98371.41
2022-12-31T02:39:07.536Z,98364.31
2022-12-31T02:41:53.802Z,98361.53
2022-12-31T02:44:43.493Z,98368.31
2022-12-31T02:47:29.005Z,98370.66
2022-12-31T02:50:32.575Z,98374.63
2022-12-31T02:53:35.312Z,98371.09
2022-12-31T02:56:52.607Z,98346.06
2022-12-31T03:00:03.113Z,98354.41
2022-12-31T03:02:50.573Z,98345.28
2022-12-31T03:05:42.420Z,98351.63
2022-12-31T03:08:27.870Z,98352.88
2022-12-31T03:11:33.223Z,98364.00
2022-12-31T03:14:18.814Z,98364.75
2022-12-31T03:17:03.972Z,98372.31
2022-12-31T03:20:07.742Z,98364.75
2022-12-31T03:22:53.108Z,98365.19
2022-12-31T03:25:41.127Z,98371.53
2022-12-31T03:28:29.577Z,98374.31
2022-12-31T03:31:16.296Z,98373.53
2022-12-31T03:34:01.637Z,98376.31
2022-12-31T03:36:46.979Z,98370.00
2022-12-31T03:39:32.102Z,98374.78
2022-12-31T03:42:17.280Z,98383.44
2022-12-31T03:45:03.465Z,98358.88
2022-12-31T03:47:49.118Z,98334.63
2022-12-31T03:50:34.954Z,98358.88
2022-12-31T03:53:20.634Z,98339.84
2022-12-31T03:56:06.377Z,98339.84
2022-12-31T03:58:52.162Z,98347.41
2022-12-31T04:01:37.896Z,98355.75
2022-12-31T04:04:23.566Z,98353.31
2022-12-31T04:07:08.833Z,98346.66
2022-12-31T04:09:54.156Z,98350.19
2022-12-31T04:12:39.831Z,98354.06
2022-12-31T04:15:25.386Z,98348.19
2022-12-31T04:18:10.803Z,98353.75
2022-12-31T04:21:01.929Z,98340.31
2022-12-31T04:23:47.366Z,98346.66
2022-12-31T04:26:33.146Z,98354.97
2022-12-31T04:29:18.576Z,98347.84
2022-12-31T04:32:05.672Z,98329.63
2022-12-31T04:34:51.058Z,98337.53
2022-12-31T04:37:36.417Z,98325.63
2022-12-31T04:40:21.662Z,98337.53
2022-12-31T04:43:06.864Z,98336.72
2022-12-31T04:45:52.269Z,98343.09
2022-12-31T04:48:37.750Z,98341.53
2022-12-31T04:51:24.717Z,98339.50
2022-12-31T04:54:10.094Z,98347.84
2022-12-31T04:56:55.304Z,98348.66
2022-12-31T04:59:40.541Z,98345.06
2022-12-31T05:02:26.026Z,98347.84
2022-12-31T05:05:11.875Z,98335.97
2022-12-31T05:07:57.394Z,98347.84
2022-12-31T05:10:48.229Z,98340.75
2022-12-31T05:13:33.928Z,98345.06
2022-12-31T05:16:19.355Z,98335.53
2022-12-31T05:19:06.371Z,98339.50
2022-12-31T05:22:10.139Z,98341.84
2022-12-31T05:24:56.237Z,98341.84
2022-12-31T05:27:41.942Z,98345.06
2022-12-31T05:30:27.345Z,98344.19
2022-12-31T05:33:12.570Z,98347.31
2022-12-31T05:35:58.774Z,98344.53
2022-12-31T05:38:44.406Z,98340.94
2022-12-31T05:41:29.965Z,98342.19
2022-12-31T05:44:15.040Z,98341.84
2022-12-31T05:47:00.285Z,98336.72
2022-12-31T05:49:45.631Z,98356.66
2022-12-31T05:52:30.803Z,98353.06
2022-12-31T05:55:16.225Z,98346.75
2022-12-31T05:58:01.439Z,98360.66
2022-12-31T06:00:46.859Z,98362.22
2022-12-31T06:03:32.236Z,98376.31
2022-12-31T06:06:17.449Z,98381.00
2022-12-31T06:09:03.703Z,98367.41
2022-12-31T06:11:49.230Z,98380.75
2022-12-31T06:14:34.675Z,98374.63
2022-12-31T06:17:20.605Z,98391.19
2022-12-31T06:20:12.476Z,98385.50
2022-12-31T06:22:58.483Z,98375.47
2022-12-31T06:25:43.820Z,98371.47
2022-12-31T06:28:29.036Z,98385.38
2022-12-31T06:31:15.337Z,98377.81
2022-12-31T06:34:00.908Z,98358.78
2022-12-31T06:36:46.125Z,98370.38
2022-12-31T06:39:31.456Z,98371.25
2022-12-31T06:42:16.604Z,98355.81
2022-12-31T06:45:01.852Z,98368.16
2022-12-31T06:47:47.527Z,98370.94
2022-12-31T06:50:35.084Z,98372.16
2022-12-31T06:53:20.691Z,98374.94
2022-12-31T06:56:08.515Z,98380.94
2022-12-31T06:58:54.105Z,98390.06
2022-12-31T07:02:03.832Z,98378.63
2022-12-31T07:04:55.248Z,98393.75
2022-12-31T07:07:52.874Z,98395.00
2022-12-31T07:10:49.055Z,98390.63
2022-12-31T07:13:37.283Z,98393.41
2022-12-31T07:16:32.032Z,98394.19
2022-12-31T07:19:39.249Z,98391.09
2022-12-31T07:22:24.982Z,98391.88
2022-12-31T07:25:14.749Z,98407.00
2022-12-31T07:28:37.295Z,98401.00
2022-12-31T07:31:48.852Z,98399.75
2022-12-31T07:34:37.072Z,98413.56
2022-12-31T07:37:45.592Z,98409.53
2022-12-31T07:41:09.673Z,98409.75
2022-12-31T07:44:21.941Z,98405.97
2022-12-31T07:47:20.112Z,98407.38
2022-12-31T07:50:05.895Z,98410.50
2022-12-31T07:52:51.471Z,98390.91
2022-12-31T07:55:37.100Z,98398.69
2022-12-31T07:58:34.311Z,98408.91
2022-12-31T08:01:31.395Z,98425.50
2022-12-31T08:04:42.443Z,98400.00
2022-12-31T08:07:40.370Z,98418.16
2022-12-31T08:10:34.466Z,98428.81
2022-12-31T08:13:21.005Z,98433.34
2022-12-31T08:16:11.567Z,98433.03
2022-12-31T08:18:57.255Z,98435.47
2022-12-31T08:21:57.467Z,98431.16
2022-12-31T08:25:06.269Z,98445.41
2022-12-31T08:28:24.531Z,98443.38
2022-12-31T08:31:31.412Z,98445.06
2022-12-31T08:34:37.858Z,98446.50
2022-12-31T08:37:55.693Z,98456.09
2022-12-31T08:41:04.920Z,98455.19
2022-12-31T08:43:59.408Z,98462.28
2022-12-31T08:47:03.380Z,98466.97
2022-12-31T08:49:48.852Z,98490.00
2022-12-31T08:52:34.737Z,98487.56
2022-12-31T08:55:21.157Z,98483.09
2022-12-31T08:58:25.140Z,98473.97
2022-12-31T09:01:13.376Z,98473.50
2022-12-31T09:04:16.225Z,98481.53
2022-12-31T09:07:04.170Z,98471.84
2022-12-31T09:09:55.644Z,98470.72
2022-12-31T09:13:02.937Z,98492.34
2022-12-31T09:15:54.414Z,98480.09
2022-12-31T09:18:42.258Z,98490.44
2022-12-31T09:21:27.812Z,98474.31
2022-12-31T09:24:14.641Z,98507.41
2022-12-31T09:27:12.964Z,98487.59
2022-12-31T09:30:05.100Z,98505.63
2022-12-31T09:33:01.359Z,98503.75
2022-12-31T09:35:56.840Z,98503.06
2022-12-31T09:39:15.089Z,98514.63
2022-12-31T09:42:00.581Z,98501.50
2022-12-31T09:45:23.468Z,98501.19
2022-12-31T09:48:42.027Z,98495.72
2022-12-31T09:51:52.288Z,98498.94
2022-12-31T09:54:49.637Z,98504.97
2022-12-31T09:57:53.468Z,98486.38
2022-12-31T10:01:03.676Z,98471.38
2022-12-31T10:04:04.174Z,98476.25
2022-12-31T10:07:18.654Z,98478.59
2022-12-31T10:10:20.472Z,98461.16
2022-12-31T10:13:05.861Z,98464.38
2022-12-31T10:16:20.622Z,98480.72
2022-12-31T10:19:37.406Z,98474.81
2022-12-31T10:22:40.838Z,98458.13
2022-12-31T10:25:37.953Z,98471.72
2022-12-31T10:28:53.992Z,98489.31
2022-12-31T10:31:39.838Z,98486.53
2022-12-31T10:35:13.653Z,98471.03
2022-12-31T10:38:13.470Z,98475.06
2022-12-31T10:41:42.538Z,98467.16
2022-12-31T10:44:46.032Z,98473.50
2022-12-31T10:47:40.760Z,98484.31
2022-12-31T10:50:48.133Z,98483.50
2022-12-31T10:54:17.182Z,98499.41
2022-12-31T10:57:23.745Z,98486.28
2022-12-31T11:00:20.531Z,98489.53
2022-12-31T11:03:32.152Z,98490.31
2022-12-31T11:06:50.052Z,98465.72
2022-12-31T11:09:44.516Z,98481.63
2022-12-31T11:12:32.923Z,98467.72
2022-12-31T11:15:21.392Z,98462.59
2022-12-31T11:18:31.116Z,98462.59
2022-12-31T11:21:28.543Z,98467.38
2022-12-31T11:24:37.127Z,98463.84
2022-12-31T11:27:48.973Z,98479.75
2022-12-31T11:30:47.645Z,98472.19
2022-12-31T11:33:50.120Z,98472.94
2022-12-31T11:37:00.342Z,98456.72
2022-12-31T11:39:57.868Z,98453.16
2022-12-31T11:42:57.048Z,98469.06
2022-12-31T11:46:04.372Z,98463.50
2022-12-31T11:49:07.817Z,98466.72
2022-12-31T11:52:21.784Z,98466.72
2022-12-31T11:55:42.673Z,98464.72
2022-12-31T11:58:29.079Z,98484.19
2022-12-31T12:01:20.322Z,98476.31
2022-12-31T12:04:05.948Z,98475.53
2022-12-31T12:06:52.424Z,98476.31
2022-12-31T12:09:37.591Z,98478.31
2022-12-31T12:12:23.224Z,98473.97
2022-12-31T12:15:11.426Z,98481.53
2022-12-31T12:18:04.743Z,98479.53
2022-12-31T12:20:50.180Z,98467.63
2022-12-31T12:23:35.585Z,98475.19
2022-12-31T12:26:28.987Z,98472.41
2022-12-31T12:29:14.417Z,98489.09
2022-12-31T12:31:59.780Z,98480.75
2022-12-31T12:34:49.636Z,98484.31
2022-12-31T12:37:36.208Z,98505.78
2022-12-31T12:40:29.810Z,98488.28
2022-12-31T12:43:36.879Z,98493.09
2022-12-31T12:46:32.251Z,98504.97
2022-12-31T12:49:26.774Z,98504.19
2022-12-31T12:52:27.690Z,98506.66
2022-12-31T12:55:49.509Z,98506.66
2022-12-31T12:58:52.273Z,98510.53
2022-12-31T13:01:46.425Z,98505.09
2022-12-31T13:04:34.763Z,98513.78
2022-12-31T13:07:41.914Z,98505.88
2022-12-31T13:10:48.272Z,98505.09
2022-12-31T13:13:43.205Z,98498.78
2022-12-31T13:16:37.874Z,98511.44
2022-12-31T13:19:39.769Z,98515.44
2022-12-31T13:22:28.184Z,98524.56
2022-12-31T13:25:44.362Z,98509.88
2022-12-31T13:28:31.776Z,98500.75
2022-12-31T13:31:27.697Z,98503.53
2022-12-31T13:34:20.977Z,98493.97
2022-12-31T13:37:22.049Z,98479.75
2022-12-31T13:40:23.915Z,98503.53
2022-12-31T13:43:19.015Z,98527.34
2022-12-31T13:46:24.395Z,98527.78
2022-12-31T13:49:21.510Z,98531.78
2022-12-31T13:52:37.975Z,98513.09
2022-12-31T13:55:28.441Z,98534.91
2022-12-31T13:58:37.984Z,98539.34
2022-12-31T14:01:34.351Z,98536.56
2022-12-31T14:05:17.389Z,98543.69
2022-12-31T14:08:06.248Z,98554.03
2022-12-31T14:11:08.189Z,98567.13
2022-12-31T14:14:13.918Z,98570.72
2022-12-31T14:17:24.011Z,98578.25
2022-12-31T14:20:21.776Z,98565.59
2022-12-31T14:23:25.459Z,98578.25
2022-12-31T14:26:28.858Z,98576.72
2022-12-31T14:29:51.843Z,98571.91
2022-12-31T14:32:58.900Z,98573.50
2022-12-31T14:35:55.190Z,98570.38
2022-12-31T14:39:14.597Z,98598.19
2022-12-31T14:42:06.100Z,98592.63
2022-12-31T14:45:07.037Z,98596.94
2022-12-31T14:48:20.082Z,98596.59
2022-12-31T14:51:07.763Z,98604.50
2022-12-31T14:53:55.059Z,98604.50
2022-12-31T14:56:43.405Z,98611.31
2022-12-31T14:59:35.682Z,98616.88
2022-12-31T15:02:33.077Z,98618.06
2022-12-31T15:05:25.243Z,98609.72
2022-12-31T15:08:31.670Z,98602.16
2022-12-31T15:11:34.343Z,98611.31
2022-12-31T15:14:58.246Z,98619.66
2022-12-31T15:17:46.540Z,98624.41
2022-12-31T15:20:47.381Z,98636.31
2022-12-31T15:23:38.495Z,98626.41
2022-12-31T15:26:34.831Z,98630.75
2022-12-31T15:29:44.258Z,98629.19
2022-12-31T15:32:39.263Z,98639.09
2022-12-31T15:35:31.946Z,98638.75
2022-12-31T15:38:33.043Z,98653.88
2022-12-31T15:41:18.417Z,98656.66
2022-12-31T15:44:12.384Z,98648.31
2022-12-31T15:47:10.684Z,98645.53
2022-12-31T15:49:58.181Z,98647.09
2022-12-31T15:52:48.084Z,98642.75
2022-12-31T15:55:54.960Z,98626.50
2022-12-31T15:58:40.693Z,98635.19
2022-12-31T16:01:35.139Z,98648.31
2022-12-31T16:04:24.168Z,98647.97
2022-12-31T16:07:11.485Z,98645.94
2022-12-31T16:09:59.583Z,98654.28
2022-12-31T16:12:45.627Z,98652.31
2022-12-31T16:15:33.658Z,98647.97
2022-12-31T16:18:22.985Z,98634.84
2022-12-31T16:21:30.675Z,98634.06
2022-12-31T16:24:32.141Z,98634.06
2022-12-31T16:27:17.824Z,98630.50
2022-12-31T16:30:08.547Z,98634.06
2022-12-31T16:32:57.957Z,98638.41
2022-12-31T16:35:44.522Z,98635.63
2022-12-31T16:38:35.899Z,98632.84
2022-12-31T16:41:22.128Z,98637.97
2022-12-31T16:44:25.027Z,98622.50
2022-12-31T16:47:18.701Z,98635.97
2022-12-31T16:50:05.451Z,98618.50
2022-12-31T16:52:57.819Z,98620.84
2022-12-31T16:55:44.108Z,98624.88
2022-12-31T16:58:37.215Z,98606.53
2022-12-31T17:01:27.891Z,98626.75
2022-12-31T17:04:18.690Z,98623.97
2022-12-31T17:07:26.612Z,98632.22
2022-12-31T17:10:20.790Z,98637.22
2022-12-31T17:13:30.005Z,98644.66
2022-12-31T17:16:17.789Z,98646.13
2022-12-31T17:19:03.939Z,98645.03
2022-12-31T17:21:49.508Z,98646.94
2022-12-31T17:24:35.939Z,98651.06
2022-12-31T17:27:21.433Z,98643.75
2022-12-31T17:30:40.317Z,98645.97
2022-12-31T17:33:30.779Z,98653.75
2022-12-31T17:36:23.794Z,98658.78
2022-12-31T17:39:39.482Z,98664.69
2022-12-31T17:42:28.201Z,98657.00
2022-12-31T17:45:21.568Z,98650.09
2022-12-31T17:48:07.188Z,98673.81
2022-12-31T17:50:59.746Z,98678.03
2022-12-31T17:53:45.271Z,98673.91
2022-12-31T17:56:30.742Z,98675.50
2022-12-31T17:59:25.668Z,98677.38
2022-12-31T18:02:13.536Z,98683.59
2022-12-31T18:04:59.368Z,98667.25
2022-12-31T18:07:45.140Z,98670.69
2022-12-31T18:10:37.161Z,98686.50
2022-12-31T18:13:25.917Z,98686.50
2022-12-31T18:16:11.301Z,98674.59
2022-12-31T18:19:00.583Z,98668.25
2022-12-31T18:21:46.615Z,98662.53
2022-12-31T18:24:32.184Z,98673.25
2022-12-31T18:27:19.095Z,98673.25
2022-12-31T18:30:05.931Z,98671.13
2022-12-31T18:32:53.880Z,98668.00
2022-12-31T18:36:07.849Z,98660.88
2022-12-31T18:38:45.909Z,98668.44
2022-12-31T18:41:38.860Z,98669.69
2022-12-31T18:44:24.005Z,98661.00
2022-12-31T18:47:18.481Z,98665.22
2022-12-31T18:50:03.938Z,98660.31
2022-12-31T18:52:49.587Z,98669.00
2022-12-31T18:55:40.840Z,98667.31
2022-12-31T18:58:26.417Z,98668.88
2022-12-31T19:01:32.180Z,98658.19
2022-12-31T19:04:26.544Z,98666.09
2022-12-31T19:07:13.193Z,98661.19
2022-12-31T19:09:58.821Z,98660.41
2022-12-31T19:12:44.661Z,98665.97
2022-12-31T19:15:33.398Z,98666.66
2022-12-31T19:18:19.176Z,98667.75
2022-12-31T19:21:05.054Z,98661.06
2022-12-31T19:23:51.183Z,98648.25
2022-12-31T19:26:41.343Z,98648.69
2022-12-31T19:29:29.078Z,98645.03
2022-12-31T19:32:14.482Z,98648.13
2022-12-31T19:34:59.892Z,98638.22
2022-12-31T19:37:47.011Z,98639.75
2022-12-31T19:40:32.859Z,98642.88
2022-12-31T19:43:20.277Z,98634.50
2022-12-31T19:46:05.852Z,98647.66
2022-12-31T19:48:51.832Z,98650.47
2022-12-31T19:51:38.637Z,98654.00
2022-12-31T19:54:24.000Z,98655.59
2022-12-31T19:57:09.699Z,98654.00
2022-12-31T19:59:54.962Z,98656.81
2022-12-31T20:02:41.443Z,98667.16
2022-12-31T20:05:27.936Z,98658.03
2022-12-31T20:08:16.602Z,98659.25
2022-12-31T20:11:17.531Z,98660.50
2022-12-31T20:14:02.864Z,98660.94
2022-12-31T20:16:48.386Z,98665.97
2022-12-31T20:19:34.108Z,98667.31
2022-12-31T20:22:20.129Z,98665.28
2022-12-31T20:25:06.255Z,98672.88
2022-12-31T20:27:55.781Z,98669.09
2022-12-31T20:30:41.391Z,98657.06
2022-12-31T20:33:26.696Z,98655.50
2022-12-31T20:36:14.604Z,98667.53
2022-12-31T20:38:59.888Z,98667.75
2022-12-31T20:41:45.867Z,98659.97
2022-12-31T20:44:31.049Z,98658.75
2022-12-31T20:47:17.651Z,98663.88
2022-12-31T20:50:12.286Z,98659.06
2022-12-31T20:52:57.846Z,98678.56
2022-12-31T20:55:43.197Z,98664.66
2022-12-31T20:58:29.426Z,98668.22
2022-12-31T21:01:18.558Z,98671.66
2022-12-31T21:04:06.366Z,98672.00
2022-12-31T21:06:53.428Z,98672.75
2022-12-31T21:09:39.077Z,98677.13
2022-12-31T21:12:43.000Z,98666.88
2022-12-31T21:15:28.252Z,98660.97
2022-12-31T21:18:13.891Z,98656.63
2022-12-31T21:21:00.719Z,98651.06
2022-12-31T21:23:46.769Z,98645.16
2022-12-31T21:26:32.337Z,98648.72
2022-12-31T21:29:17.640Z,98653.50
2022-12-31T21:32:02.976Z,98653.50
2022-12-31T21:35:14.659Z,98647.94
2022-12-31T21:37:58.629Z,98644.06
2022-12-31T21:40:46.302Z,98650.06
2022-12-31T21:43:34.232Z,98640.94
2022-12-31T21:46:20.984Z,98658.41
2022-12-31T21:49:06.760Z,98664.78
2022-12-31T21:52:10.984Z,98664.78
2022-12-31T21:55:17.821Z,98660.09
2022-12-31T22:01:38.655Z,98667.66
2022-12-31T22:05:00.509Z,98669.44
2022-12-31T22:07:29.551Z,98671.03
2022-12-31T22:10:15.207Z,98678.47
2022-12-31T22:13:00.973Z,98692.72
2022-12-31T22:15:48.205Z,98685.16
2022-12-31T22:18:41.351Z,98698.31
2022-12-31T22:21:27.721Z,98712.56
2022-12-31T22:24:13.355Z,98712.13
2022-12-31T22:26:59.729Z,98715.25
2022-12-31T22:30:05.506Z,98713.09
2022-12-31T22:32:50.774Z,98724.56
2022-12-31T22:35:36.003Z,98712.09
2022-12-31T22:38:21.116Z,98722.03
2022-12-31T22:41:07.675Z,98724.81
2022-12-31T22:44:02.611Z,98723.56
2022-12-31T22:46:49.795Z,98729.81
2022-12-31T23:50:36.611Z,98784.38
2022-12-31T23:53:23.238Z,98787.59
2022-12-31T23:56:17.652Z,98791.25
2022-12-31T23:59:10.834Z,98797.72
